Central Virginia Flyers


Central Virginia Flyers is a 10 member flying club based in Richmond, VA at Hanover County Airport (KOFP). We own N787AT, a 1977 Cessna 172 with 180hp conversion. If you are interested in membership, please contact Brenton at brenton@cvflyers.org.


Aviation Digital Data Service (ADDS)

Output produced by METARs form (2207 UTC 25 July 2014)
found at http://aviationweather.gov/adds/metars/
 
KOFP 252154Z AUTO 00000KT 10SM SCT060 28/14 A3002 RMK AO2 SLP165 T02830144
KRIC 252154Z 12006KT 10SM BKN055 29/15 A3001 RMK AO2 SLP165 T02890150
KRIC 251739Z 2518/2618 VRB06KT P6SM SCT050 
     FM252300 17003KT P6SM SCT050 
     FM260900 20003KT 5SM BR FEW050 
     FM261300 21008KT P6SM SCT040